sensor_id;sensor_type;location;lat;lon;timestamp;P1;durP1;ratioP1;P2;durP2;ratioP2
54454;SDS011;40364;52.270;10.546;2022-10-17T00:01:12;2.53;;;1.65;;
54454;SDS011;40364;52.270;10.546;2022-10-17T00:03:39;1.55;;;1.33;;
54454;SDS011;40364;52.270;10.546;2022-10-17T00:06:06;5.55;;;1.70;;
54454;SDS011;40364;52.270;10.546;2022-10-17T00:08:35;3.75;;;1.80;;
54454;SDS011;40364;52.270;10.546;2022-10-17T00:11:03;8.07;;;1.90;;
54454;SDS011;40364;52.270;10.546;2022-10-17T00:13:31;2.83;;;1.90;;
54454;SDS011;40364;52.270;10.546;2022-10-17T00:16:00;3.83;;;2.03;;
54454;SDS011;40364;52.270;10.546;2022-10-17T00:18:27;5.85;;;2.20;;
54454;SDS011;40364;52.270;10.546;2022-10-17T00:20:53;2.35;;;1.63;;
54454;SDS011;40364;52.270;10.546;2022-10-17T00:23:20;4.63;;;2.03;;
54454;SDS011;40364;52.270;10.546;2022-10-17T00:25:47;2.92;;;1.80;;
54454;SDS011;40364;52.270;10.546;2022-10-17T00:28:24;5.95;;;1.73;;
54454;SDS011;40364;52.270;10.546;2022-10-17T00:30:54;3.58;;;2.05;;
54454;SDS011;40364;52.270;10.546;2022-10-17T00:33:23;2.72;;;1.95;;
54454;SDS011;40364;52.270;10.546;2022-10-17T00:35:49;5.15;;;1.98;;
54454;SDS011;40364;52.270;10.546;2022-10-17T00:38:16;4.20;;;2.20;;
54454;SDS011;40364;52.270;10.546;2022-10-17T00:40:43;3.42;;;2.20;;
54454;SDS011;40364;52.270;10.546;2022-10-17T00:43:10;4.35;;;2.10;;
54454;SDS011;40364;52.270;10.546;2022-10-17T00:45:41;2.20;;;2.00;;
54454;SDS011;40364;52.270;10.546;2022-10-17T00:48:08;2.28;;;2.03;;
54454;SDS011;40364;52.270;10.546;2022-10-17T00:50:38;3.97;;;2.10;;
54454;SDS011;40364;52.270;10.546;2022-10-17T00:53:08;2.63;;;2.00;;
54454;SDS011;40364;52.270;10.546;2022-10-17T00:55:36;3.00;;;1.75;;
54454;SDS011;40364;52.270;10.546;2022-10-17T00:58:07;4.50;;;2.60;;
54454;SDS011;40364;52.270;10.546;2022-10-17T01:00:34;8.40;;;2.83;;
54454;SDS011;40364;52.270;10.546;2022-10-17T01:03:01;6.68;;;2.78;;
54454;SDS011;40364;52.270;10.546;2022-10-17T01:05:27;2.95;;;2.42;;
54454;SDS011;40364;52.270;10.546;2022-10-17T01:07:55;4.93;;;2.80;;
54454;SDS011;40364;52.270;10.546;2022-10-17T01:10:23;5.78;;;2.95;;
54454;SDS011;40364;52.270;10.546;2022-10-17T01:12:59;3.30;;;2.60;;
54454;SDS011;40364;52.270;10.546;2022-10-17T01:15:39;5.43;;;3.22;;
54454;SDS011;40364;52.270;10.546;2022-10-17T01:18:18;6.10;;;3.20;;
54454;SDS011;40364;52.270;10.546;2022-10-17T01:20:59;6.32;;;3.03;;
54454;SDS011;40364;52.270;10.546;2022-10-17T01:23:57;4.63;;;3.05;;
54454;SDS011;40364;52.270;10.546;2022-10-17T01:26:52;3.78;;;2.80;;
54454;SDS011;40364;52.270;10.546;2022-10-17T01:29:45;10.68;;;3.25;;
54454;SDS011;40364;52.270;10.546;2022-10-17T01:32:24;4.47;;;3.17;;
54454;SDS011;40364;52.270;10.546;2022-10-17T01:35:02;5.78;;;3.00;;
54454;SDS011;40364;52.270;10.546;2022-10-17T01:37:38;5.97;;;2.50;;
54454;SDS011;40364;52.270;10.546;2022-10-17T01:40:10;4.15;;;3.55;;
54454;SDS011;40364;52.270;10.546;2022-10-17T01:42:44;4.80;;;3.10;;
54454;SDS011;40364;52.270;10.546;2022-10-17T01:45:20;4.85;;;3.47;;
54454;SDS011;40364;52.270;10.546;2022-10-17T01:47:55;4.05;;;3.20;;
54454;SDS011;40364;52.270;10.546;2022-10-17T01:50:27;6.50;;;3.80;;
54454;SDS011;40364;52.270;10.546;2022-10-17T01:53:01;4.90;;;3.50;;
54454;SDS011;40364;52.270;10.546;2022-10-17T01:55:32;4.38;;;3.50;;
54454;SDS011;40364;52.270;10.546;2022-10-17T01:58:05;4.38;;;3.40;;
54454;SDS011;40364;52.270;10.546;2022-10-17T02:00:34;5.18;;;3.58;;
54454;SDS011;40364;52.270;10.546;2022-10-17T02:03:06;4.72;;;3.25;;
54454;SDS011;40364;52.270;10.546;2022-10-17T02:05:38;4.38;;;3.55;;
54454;SDS011;40364;52.270;10.546;2022-10-17T02:08:07;4.28;;;3.28;;
54454;SDS011;40364;52.270;10.546;2022-10-17T02:10:35;4.30;;;3.47;;
54454;SDS011;40364;52.270;10.546;2022-10-17T02:13:08;4.50;;;3.28;;
54454;SDS011;40364;52.270;10.546;2022-10-17T02:15:46;6.05;;;3.47;;
54454;SDS011;40364;52.270;10.546;2022-10-17T02:18:40;4.03;;;3.38;;
54454;SDS011;40364;52.270;10.546;2022-10-17T02:21:25;4.97;;;4.00;;
54454;SDS011;40364;52.270;10.546;2022-10-17T02:24:01;3.75;;;3.35;;
54454;SDS011;40364;52.270;10.546;2022-10-17T02:26:34;5.00;;;4.07;;
54454;SDS011;40364;52.270;10.546;2022-10-17T02:29:06;4.63;;;3.58;;
54454;SDS011;40364;52.270;10.546;2022-10-17T02:31:40;4.45;;;4.00;;
54454;SDS011;40364;52.270;10.546;2022-10-17T02:34:11;4.78;;;4.03;;
54454;SDS011;40364;52.270;10.546;2022-10-17T02:36:44;7.75;;;3.42;;
54454;SDS011;40364;52.270;10.546;2022-10-17T02:39:14;6.38;;;3.80;;
54454;SDS011;40364;52.270;10.546;2022-10-17T02:41:48;5.35;;;3.63;;
54454;SDS011;40364;52.270;10.546;2022-10-17T02:44:35;5.32;;;3.53;;
54454;SDS011;40364;52.270;10.546;2022-10-17T02:47:07;4.72;;;3.40;;
54454;SDS011;40364;52.270;10.546;2022-10-17T02:49:42;5.07;;;3.38;;
54454;SDS011;40364;52.270;10.546;2022-10-17T02:52:16;5.93;;;3.03;;
54454;SDS011;40364;52.270;10.546;2022-10-17T02:54:49;6.78;;;3.53;;
54454;SDS011;40364;52.270;10.546;2022-10-17T02:57:21;3.35;;;3.00;;
54454;SDS011;40364;52.270;10.546;2022-10-17T03:00:01;5.00;;;3.10;;
54454;SDS011;40364;52.270;10.546;2022-10-17T03:02:38;5.85;;;3.03;;
54454;SDS011;40364;52.270;10.546;2022-10-17T03:05:08;3.72;;;3.10;;
54454;SDS011;40364;52.270;10.546;2022-10-17T03:07:35;7.07;;;3.45;;
54454;SDS011;40364;52.270;10.546;2022-10-17T03:10:02;4.75;;;3.50;;
54454;SDS011;40364;52.270;10.546;2022-10-17T03:12:29;4.82;;;3.33;;
54454;SDS011;40364;52.270;10.546;2022-10-17T03:14:56;3.63;;;2.67;;
54454;SDS011;40364;52.270;10.546;2022-10-17T03:17:23;4.63;;;2.78;;
54454;SDS011;40364;52.270;10.546;2022-10-17T03:19:49;4.78;;;3.17;;
54454;SDS011;40364;52.270;10.546;2022-10-17T03:22:17;7.10;;;3.55;;
54454;SDS011;40364;52.270;10.546;2022-10-17T03:24:44;3.55;;;2.85;;
54454;SDS011;40364;52.270;10.546;2022-10-17T03:27:10;4.13;;;3.03;;
54454;SDS011;40364;52.270;10.546;2022-10-17T03:29:37;4.30;;;3.03;;
54454;SDS011;40364;52.270;10.546;2022-10-17T03:32:04;5.35;;;2.90;;
54454;SDS011;40364;52.270;10.546;2022-10-17T03:34:31;5.75;;;2.90;;
54454;SDS011;40364;52.270;10.546;2022-10-17T03:36:57;3.88;;;3.00;;
54454;SDS011;40364;52.270;10.546;2022-10-17T03:39:25;6.47;;;3.42;;
54454;SDS011;40364;52.270;10.546;2022-10-17T03:41:52;3.92;;;2.90;;
54454;SDS011;40364;52.270;10.546;2022-10-17T03:44:19;3.92;;;3.03;;
54454;SDS011;40364;52.270;10.546;2022-10-17T03:46:45;4.53;;;3.00;;
54454;SDS011;40364;52.270;10.546;2022-10-17T03:49:12;4.93;;;2.90;;
54454;SDS011;40364;52.270;10.546;2022-10-17T03:51:38;4.03;;;3.10;;
54454;SDS011;40364;52.270;10.546;2022-10-17T03:54:05;4.07;;;2.97;;
54454;SDS011;40364;52.270;10.546;2022-10-17T03:56:33;3.85;;;3.08;;
54454;SDS011;40364;52.270;10.546;2022-10-17T03:59:00;5.75;;;3.10;;
54454;SDS011;40364;52.270;10.546;2022-10-17T04:01:27;3.65;;;2.85;;
54454;SDS011;40364;52.270;10.546;2022-10-17T04:03:54;5.60;;;3.20;;
54454;SDS011;40364;52.270;10.546;2022-10-17T04:06:22;5.15;;;3.00;;
54454;SDS011;40364;52.270;10.546;2022-10-17T04:08:49;5.53;;;3.08;;
54454;SDS011;40364;52.270;10.546;2022-10-17T04:11:19;8.52;;;3.10;;
54454;SDS011;40364;52.270;10.546;2022-10-17T04:13:51;3.80;;;3.10;;
54454;SDS011;40364;52.270;10.546;2022-10-17T04:16:18;4.18;;;3.20;;
54454;SDS011;40364;52.270;10.546;2022-10-17T04:18:45;4.90;;;3.13;;
54454;SDS011;40364;52.270;10.546;2022-10-17T04:21:12;4.47;;;2.70;;
54454;SDS011;40364;52.270;10.546;2022-10-17T04:23:40;4.03;;;2.67;;
54454;SDS011;40364;52.270;10.546;2022-10-17T04:26:08;4.70;;;2.83;;
54454;SDS011;40364;52.270;10.546;2022-10-17T04:28:52;3.80;;;2.55;;
54454;SDS011;40364;52.270;10.546;2022-10-17T04:31:47;5.15;;;2.70;;
54454;SDS011;40364;52.270;10.546;2022-10-17T04:34:28;4.95;;;2.97;;
54454;SDS011;40364;52.270;10.546;2022-10-17T04:37:01;9.18;;;2.85;;
54454;SDS011;40364;52.270;10.546;2022-10-17T04:39:45;5.68;;;2.55;;
54454;SDS011;40364;52.270;10.546;2022-10-17T04:42:24;4.55;;;2.70;;
54454;SDS011;40364;52.270;10.546;2022-10-17T04:44:58;7.28;;;3.13;;
54454;SDS011;40364;52.270;10.546;2022-10-17T04:47:40;4.68;;;3.00;;
54454;SDS011;40364;52.270;10.546;2022-10-17T04:50:09;5.28;;;2.92;;
54454;SDS011;40364;52.270;10.546;2022-10-17T04:52:41;4.88;;;3.60;;
54454;SDS011;40364;52.270;10.546;2022-10-17T04:55:14;7.10;;;3.28;;
54454;SDS011;40364;52.270;10.546;2022-10-17T04:57:40;7.30;;;3.70;;
54454;SDS011;40364;52.270;10.546;2022-10-17T05:00:09;4.88;;;3.45;;
54454;SDS011;40364;52.270;10.546;2022-10-17T05:02:36;4.35;;;3.10;;
54454;SDS011;40364;52.270;10.546;2022-10-17T05:05:05;11.30;;;4.75;;
54454;SDS011;40364;52.270;10.546;2022-10-17T05:07:32;5.32;;;3.97;;
54454;SDS011;40364;52.270;10.546;2022-10-17T05:09:59;7.38;;;3.88;;
54454;SDS011;40364;52.270;10.546;2022-10-17T05:12:26;4.70;;;3.33;;
54454;SDS011;40364;52.270;10.546;2022-10-17T05:14:52;4.07;;;3.30;;
54454;SDS011;40364;52.270;10.546;2022-10-17T05:17:20;6.65;;;3.65;;
54454;SDS011;40364;52.270;10.546;2022-10-17T05:19:47;3.88;;;2.95;;
54454;SDS011;40364;52.270;10.546;2022-10-17T05:22:14;6.38;;;3.70;;
54454;SDS011;40364;52.270;10.546;2022-10-17T05:24:40;7.05;;;3.53;;
54454;SDS011;40364;52.270;10.546;2022-10-17T05:27:07;7.15;;;3.72;;
54454;SDS011;40364;52.270;10.546;2022-10-17T05:29:34;4.75;;;3.80;;
54454;SDS011;40364;52.270;10.546;2022-10-17T05:32:00;7.85;;;3.78;;
54454;SDS011;40364;52.270;10.546;2022-10-17T05:34:28;4.93;;;3.33;;
54454;SDS011;40364;52.270;10.546;2022-10-17T05:36:58;5.53;;;3.65;;
54454;SDS011;40364;52.270;10.546;2022-10-17T05:39:25;8.40;;;3.92;;
54454;SDS011;40364;52.270;10.546;2022-10-17T05:41:51;8.90;;;4.05;;
54454;SDS011;40364;52.270;10.546;2022-10-17T05:44:18;7.03;;;4.13;;
54454;SDS011;40364;52.270;10.546;2022-10-17T05:46:46;9.90;;;4.10;;
54454;SDS011;40364;52.270;10.546;2022-10-17T05:49:13;6.53;;;4.03;;
54454;SDS011;40364;52.270;10.546;2022-10-17T05:51:42;5.55;;;4.05;;
54454;SDS011;40364;52.270;10.546;2022-10-17T05:54:09;7.50;;;4.22;;
54454;SDS011;40364;52.270;10.546;2022-10-17T05:56:38;9.20;;;3.85;;
54454;SDS011;40364;52.270;10.546;2022-10-17T05:59:09;11.07;;;4.50;;
54454;SDS011;40364;52.270;10.546;2022-10-17T06:01:37;7.72;;;4.07;;
54454;SDS011;40364;52.270;10.546;2022-10-17T06:04:05;6.90;;;4.55;;
54454;SDS011;40364;52.270;10.546;2022-10-17T06:06:35;8.73;;;4.90;;
54454;SDS011;40364;52.270;10.546;2022-10-17T06:09:05;6.63;;;4.40;;
54454;SDS011;40364;52.270;10.546;2022-10-17T06:11:33;6.22;;;4.43;;
54454;SDS011;40364;52.270;10.546;2022-10-17T06:14:02;7.15;;;4.72;;
54454;SDS011;40364;52.270;10.546;2022-10-17T06:16:29;7.88;;;4.45;;
54454;SDS011;40364;52.270;10.546;2022-10-17T06:18:56;7.03;;;4.40;;
54454;SDS011;40364;52.270;10.546;2022-10-17T06:21:24;6.90;;;4.00;;
54454;SDS011;40364;52.270;10.546;2022-10-17T06:23:52;6.35;;;4.28;;
54454;SDS011;40364;52.270;10.546;2022-10-17T06:26:20;7.13;;;4.07;;
54454;SDS011;40364;52.270;10.546;2022-10-17T06:28:46;6.03;;;4.35;;
54454;SDS011;40364;52.270;10.546;2022-10-17T06:31:13;7.22;;;4.57;;
54454;SDS011;40364;52.270;10.546;2022-10-17T06:33:41;5.82;;;4.20;;
54454;SDS011;40364;52.270;10.546;2022-10-17T06:36:09;7.40;;;3.88;;
54454;SDS011;40364;52.270;10.546;2022-10-17T06:38:37;8.10;;;4.13;;
54454;SDS011;40364;52.270;10.546;2022-10-17T06:41:04;6.10;;;4.00;;
54454;SDS011;40364;52.270;10.546;2022-10-17T06:43:34;7.60;;;4.50;;
54454;SDS011;40364;52.270;10.546;2022-10-17T06:46:01;7.07;;;3.95;;
54454;SDS011;40364;52.270;10.546;2022-10-17T06:48:28;7.18;;;3.90;;
54454;SDS011;40364;52.270;10.546;2022-10-17T06:50:57;5.60;;;3.70;;
54454;SDS011;40364;52.270;10.546;2022-10-17T06:53:25;11.18;;;4.07;;
54454;SDS011;40364;52.270;10.546;2022-10-17T06:55:52;5.07;;;3.58;;
54454;SDS011;40364;52.270;10.546;2022-10-17T06:58:25;6.65;;;3.50;;
54454;SDS011;40364;52.270;10.546;2022-10-17T07:00:55;5.32;;;3.10;;
54454;SDS011;40364;52.270;10.546;2022-10-17T07:03:23;6.15;;;3.88;;
54454;SDS011;40364;52.270;10.546;2022-10-17T07:05:50;4.43;;;3.38;;
54454;SDS011;40364;52.270;10.546;2022-10-17T07:08:17;4.85;;;3.60;;
54454;SDS011;40364;52.270;10.546;2022-10-17T07:10:44;6.95;;;3.15;;
54454;SDS011;40364;52.270;10.546;2022-10-17T07:13:11;8.48;;;3.28;;
54454;SDS011;40364;52.270;10.546;2022-10-17T07:15:38;8.88;;;3.28;;
54454;SDS011;40364;52.270;10.546;2022-10-17T07:18:06;4.25;;;2.90;;
54454;SDS011;40364;52.270;10.546;2022-10-17T07:20:32;6.18;;;3.40;;
54454;SDS011;40364;52.270;10.546;2022-10-17T07:22:59;6.45;;;3.22;;
54454;SDS011;40364;52.270;10.546;2022-10-17T07:25:26;6.82;;;3.60;;
54454;SDS011;40364;52.270;10.546;2022-10-17T07:27:52;4.15;;;3.20;;
54454;SDS011;40364;52.270;10.546;2022-10-17T07:30:20;6.03;;;2.85;;
54454;SDS011;40364;52.270;10.546;2022-10-17T07:32:47;7.75;;;3.17;;
54454;SDS011;40364;52.270;10.546;2022-10-17T07:35:15;3.78;;;2.83;;
54454;SDS011;40364;52.270;10.546;2022-10-17T07:37:44;10.82;;;2.97;;
54454;SDS011;40364;52.270;10.546;2022-10-17T07:40:10;7.47;;;2.70;;
54454;SDS011;40364;52.270;10.546;2022-10-17T07:42:37;8.10;;;3.42;;
54454;SDS011;40364;52.270;10.546;2022-10-17T07:45:04;3.25;;;2.70;;
54454;SDS011;40364;52.270;10.546;2022-10-17T07:47:32;4.68;;;3.38;;
54454;SDS011;40364;52.270;10.546;2022-10-17T07:49:59;4.20;;;2.78;;
54454;SDS011;40364;52.270;10.546;2022-10-17T07:52:28;7.63;;;2.75;;
54454;SDS011;40364;52.270;10.546;2022-10-17T07:54:54;6.03;;;2.92;;
54454;SDS011;40364;52.270;10.546;2022-10-17T07:57:21;5.65;;;3.00;;
54454;SDS011;40364;52.270;10.546;2022-10-17T07:59:48;4.72;;;2.97;;
54454;SDS011;40364;52.270;10.546;2022-10-17T08:02:19;4.68;;;2.65;;
54454;SDS011;40364;52.270;10.546;2022-10-17T08:04:47;5.47;;;2.70;;
54454;SDS011;40364;52.270;10.546;2022-10-17T08:07:14;3.95;;;2.97;;
54454;SDS011;40364;52.270;10.546;2022-10-17T08:09:42;4.28;;;2.70;;
54454;SDS011;40364;52.270;10.546;2022-10-17T08:12:09;7.07;;;3.08;;
54454;SDS011;40364;52.270;10.546;2022-10-17T08:14:36;4.00;;;2.33;;
54454;SDS011;40364;52.270;10.546;2022-10-17T08:17:03;6.70;;;3.13;;
54454;SDS011;40364;52.270;10.546;2022-10-17T08:19:29;4.38;;;2.85;;
54454;SDS011;40364;52.270;10.546;2022-10-17T08:21:56;5.85;;;2.53;;
54454;SDS011;40364;52.270;10.546;2022-10-17T08:24:23;3.20;;;2.20;;
54454;SDS011;40364;52.270;10.546;2022-10-17T08:26:51;4.63;;;2.50;;
54454;SDS011;40364;52.270;10.546;2022-10-17T08:29:18;3.17;;;2.45;;
54454;SDS011;40364;52.270;10.546;2022-10-17T08:31:45;9.05;;;2.30;;
54454;SDS011;40364;52.270;10.546;2022-10-17T08:34:11;5.13;;;2.50;;
54454;SDS011;40364;52.270;10.546;2022-10-17T08:36:40;3.58;;;2.40;;
54454;SDS011;40364;52.270;10.546;2022-10-17T08:39:06;3.80;;;2.22;;
54454;SDS011;40364;52.270;10.546;2022-10-17T08:41:37;3.92;;;2.45;;
54454;SDS011;40364;52.270;10.546;2022-10-17T08:44:18;6.53;;;2.58;;
54454;SDS011;40364;52.270;10.546;2022-10-17T08:46:59;2.83;;;2.30;;
54454;SDS011;40364;52.270;10.546;2022-10-17T08:49:42;8.57;;;3.08;;
54454;SDS011;40364;52.270;10.546;2022-10-17T08:52:17;4.20;;;2.33;;
54454;SDS011;40364;52.270;10.546;2022-10-17T08:54:47;3.25;;;2.65;;
54454;SDS011;40364;52.270;10.546;2022-10-17T08:57:16;7.03;;;2.78;;
54454;SDS011;40364;52.270;10.546;2022-10-17T08:59:47;3.25;;;2.50;;
54454;SDS011;40364;52.270;10.546;2022-10-17T09:02:30;9.27;;;2.70;;
54454;SDS011;40364;52.270;10.546;2022-10-17T09:05:20;3.13;;;2.25;;
54454;SDS011;40364;52.270;10.546;2022-10-17T09:07:54;6.90;;;2.45;;
54454;SDS011;40364;52.270;10.546;2022-10-17T09:10:33;4.43;;;2.40;;
54454;SDS011;40364;52.270;10.546;2022-10-17T09:13:10;5.20;;;2.70;;
54454;SDS011;40364;52.270;10.546;2022-10-17T09:18:52;3.97;;;2.40;;
54454;SDS011;40364;52.270;10.546;2022-10-17T09:21:28;5.20;;;2.15;;
54454;SDS011;40364;52.270;10.546;2022-10-17T09:24:03;4.57;;;2.13;;
54454;SDS011;40364;52.270;10.546;2022-10-17T09:26:36;5.15;;;2.00;;
54454;SDS011;40364;52.270;10.546;2022-10-17T09:29:09;3.20;;;2.13;;
54454;SDS011;40364;52.270;10.546;2022-10-17T09:31:45;3.60;;;2.38;;
54454;SDS011;40364;52.270;10.546;2022-10-17T09:34:16;4.60;;;2.10;;
54454;SDS011;40364;52.270;10.546;2022-10-17T09:36:43;6.20;;;2.17;;
54454;SDS011;40364;52.270;10.546;2022-10-17T09:39:11;4.93;;;2.20;;
54454;SDS011;40364;52.270;10.546;2022-10-17T09:41:40;8.38;;;1.98;;
54454;SDS011;40364;52.270;10.546;2022-10-17T09:44:12;5.07;;;2.17;;
54454;SDS011;40364;52.270;10.546;2022-10-17T09:46:45;2.63;;;2.10;;
54454;SDS011;40364;52.270;10.546;2022-10-17T09:49:24;2.35;;;1.98;;
54454;SDS011;40364;52.270;10.546;2022-10-17T09:51:59;8.18;;;2.20;;
54454;SDS011;40364;52.270;10.546;2022-10-17T09:54:28;9.95;;;2.42;;
54454;SDS011;40364;52.270;10.546;2022-10-17T09:57:05;3.67;;;1.90;;
54454;SDS011;40364;52.270;10.546;2022-10-17T09:59:36;6.50;;;2.20;;
54454;SDS011;40364;52.270;10.546;2022-10-17T10:02:12;10.25;;;2.58;;
54454;SDS011;40364;52.270;10.546;2022-10-17T10:04:56;2.28;;;1.77;;
54454;SDS011;40364;52.270;10.546;2022-10-17T10:07:26;4.68;;;2.05;;
54454;SDS011;40364;52.270;10.546;2022-10-17T10:09:53;3.13;;;1.90;;
54454;SDS011;40364;52.270;10.546;2022-10-17T10:12:22;6.78;;;2.25;;
54454;SDS011;40364;52.270;10.546;2022-10-17T10:14:50;5.65;;;1.90;;
54454;SDS011;40364;52.270;10.546;2022-10-17T10:17:27;10.20;;;2.60;;
54454;SDS011;40364;52.270;10.546;2022-10-17T10:23:03;6.90;;;2.08;;
54454;SDS011;40364;52.270;10.546;2022-10-17T10:25:33;7.30;;;1.90;;
54454;SDS011;40364;52.270;10.546;2022-10-17T10:28:02;4.45;;;2.28;;
54454;SDS011;40364;52.270;10.546;2022-10-17T10:30:36;2.95;;;2.10;;
54454;SDS011;40364;52.270;10.546;2022-10-17T10:33:04;3.30;;;2.25;;
54454;SDS011;40364;52.270;10.546;2022-10-17T10:35:32;3.30;;;2.03;;
54454;SDS011;40364;52.270;10.546;2022-10-17T10:38:01;5.88;;;2.17;;
54454;SDS011;40364;52.270;10.546;2022-10-17T10:40:34;6.28;;;2.08;;
54454;SDS011;40364;52.270;10.546;2022-10-17T10:43:04;3.63;;;2.10;;
54454;SDS011;40364;52.270;10.546;2022-10-17T10:45:38;5.10;;;2.25;;
54454;SDS011;40364;52.270;10.546;2022-10-17T10:48:15;3.17;;;2.08;;
54454;SDS011;40364;52.270;10.546;2022-10-17T10:50:48;4.47;;;2.28;;
54454;SDS011;40364;52.270;10.546;2022-10-17T10:53:30;5.82;;;2.30;;
54454;SDS011;40364;52.270;10.546;2022-10-17T10:56:03;4.93;;;1.90;;
54454;SDS011;40364;52.270;10.546;2022-10-17T10:58:39;4.40;;;2.22;;
54454;SDS011;40364;52.270;10.546;2022-10-17T11:01:16;5.15;;;2.05;;
54454;SDS011;40364;52.270;10.546;2022-10-17T11:03:59;5.30;;;1.80;;
54454;SDS011;40364;52.270;10.546;2022-10-17T11:06:56;3.33;;;2.08;;
54454;SDS011;40364;52.270;10.546;2022-10-17T11:09:30;7.88;;;2.25;;
54454;SDS011;40364;52.270;10.546;2022-10-17T11:12:08;6.53;;;2.35;;
54454;SDS011;40364;52.270;10.546;2022-10-17T11:14:44;2.40;;;1.83;;
54454;SDS011;40364;52.270;10.546;2022-10-17T11:17:20;7.40;;;1.75;;
54454;SDS011;40364;52.270;10.546;2022-10-17T11:19:58;7.22;;;2.17;;
54454;SDS011;40364;52.270;10.546;2022-10-17T11:22:36;2.05;;;1.85;;
54454;SDS011;40364;52.270;10.546;2022-10-17T11:25:12;7.57;;;2.38;;
54454;SDS011;40364;52.270;10.546;2022-10-17T11:27:47;8.73;;;1.98;;
54454;SDS011;40364;52.270;10.546;2022-10-17T11:30:14;4.47;;;2.13;;
54454;SDS011;40364;52.270;10.546;2022-10-17T11:32:43;8.02;;;2.63;;
54454;SDS011;40364;52.270;10.546;2022-10-17T11:35:15;4.43;;;1.85;;
54454;SDS011;40364;52.270;10.546;2022-10-17T11:37:46;4.90;;;2.10;;
54454;SDS011;40364;52.270;10.546;2022-10-17T11:40:19;7.55;;;1.73;;
54454;SDS011;40364;52.270;10.546;2022-10-17T11:42:55;4.93;;;1.98;;
54454;SDS011;40364;52.270;10.546;2022-10-17T11:45:26;2.67;;;1.50;;
54454;SDS011;40364;52.270;10.546;2022-10-17T11:47:57;8.02;;;1.80;;
54454;SDS011;40364;52.270;10.546;2022-10-17T11:50:30;4.63;;;2.03;;
54454;SDS011;40364;52.270;10.546;2022-10-17T11:53:00;4.35;;;2.13;;
54454;SDS011;40364;52.270;10.546;2022-10-17T11:58:08;2.78;;;1.75;;
54454;SDS011;40364;52.270;10.546;2022-10-17T12:00:51;5.97;;;1.90;;
54454;SDS011;40364;52.270;10.546;2022-10-17T12:03:28;5.68;;;2.20;;
54454;SDS011;40364;52.270;10.546;2022-10-17T12:06:10;6.57;;;2.20;;
54454;SDS011;40364;52.270;10.546;2022-10-17T12:08:43;8.50;;;2.22;;
54454;SDS011;40364;52.270;10.546;2022-10-17T12:11:16;3.53;;;2.10;;
54454;SDS011;40364;52.270;10.546;2022-10-17T12:13:53;4.80;;;2.20;;
54454;SDS011;40364;52.270;10.546;2022-10-17T12:19:25;11.13;;;2.05;;
54454;SDS011;40364;52.270;10.546;2022-10-17T12:21:57;6.70;;;2.17;;
54454;SDS011;40364;52.270;10.546;2022-10-17T12:24:32;4.35;;;1.77;;
54454;SDS011;40364;52.270;10.546;2022-10-17T12:27:21;4.82;;;2.10;;
54454;SDS011;40364;52.270;10.546;2022-10-17T12:29:57;9.40;;;2.47;;
54454;SDS011;40364;52.270;10.546;2022-10-17T12:32:25;3.92;;;2.05;;
54454;SDS011;40364;52.270;10.546;2022-10-17T12:34:52;10.45;;;2.78;;
54454;SDS011;40364;52.270;10.546;2022-10-17T12:40:47;6.18;;;1.80;;
54454;SDS011;40364;52.270;10.546;2022-10-17T12:49:37;8.15;;;1.95;;
54454;SDS011;40364;52.270;10.546;2022-10-17T12:52:14;5.45;;;2.20;;
54454;SDS011;40364;52.270;10.546;2022-10-17T12:54:47;5.57;;;1.80;;
54454;SDS011;40364;52.270;10.546;2022-10-17T12:57:20;5.45;;;1.90;;
54454;SDS011;40364;52.270;10.546;2022-10-17T12:59:52;6.20;;;1.48;;
54454;SDS011;40364;52.270;10.546;2022-10-17T13:02:20;8.95;;;1.75;;
54454;SDS011;40364;52.270;10.546;2022-10-17T13:04:57;6.38;;;2.17;;
54454;SDS011;40364;52.270;10.546;2022-10-17T13:07:32;7.50;;;2.00;;
54454;SDS011;40364;52.270;10.546;2022-10-17T13:10:14;4.53;;;1.58;;
54454;SDS011;40364;52.270;10.546;2022-10-17T13:12:46;3.92;;;1.55;;
54454;SDS011;40364;52.270;10.546;2022-10-17T13:15:15;7.85;;;2.05;;
54454;SDS011;40364;52.270;10.546;2022-10-17T13:17:44;5.80;;;1.67;;
54454;SDS011;40364;52.270;10.546;2022-10-17T13:20:17;6.35;;;2.10;;
54454;SDS011;40364;52.270;10.546;2022-10-17T13:22:45;3.38;;;1.70;;
54454;SDS011;40364;52.270;10.546;2022-10-17T13:25:13;10.32;;;1.65;;
54454;SDS011;40364;52.270;10.546;2022-10-17T13:27:42;14.60;;;3.00;;
54454;SDS011;40364;52.270;10.546;2022-10-17T13:30:25;4.32;;;1.80;;
54454;SDS011;40364;52.270;10.546;2022-10-17T13:32:53;6.03;;;1.85;;
54454;SDS011;40364;52.270;10.546;2022-10-17T13:35:24;2.70;;;1.77;;
54454;SDS011;40364;52.270;10.546;2022-10-17T13:37:53;3.45;;;1.58;;
54454;SDS011;40364;52.270;10.546;2022-10-17T13:40:21;6.00;;;1.85;;
54454;SDS011;40364;52.270;10.546;2022-10-17T13:42:50;6.43;;;2.08;;
54454;SDS011;40364;52.270;10.546;2022-10-17T13:45:20;11.43;;;2.50;;
54454;SDS011;40364;52.270;10.546;2022-10-17T13:47:53;3.08;;;2.20;;
54454;SDS011;40364;52.270;10.546;2022-10-17T13:50:22;9.20;;;2.08;;
54454;SDS011;40364;52.270;10.546;2022-10-17T13:53:13;5.13;;;1.85;;
54454;SDS011;40364;52.270;10.546;2022-10-17T13:55:49;4.50;;;1.70;;
54454;SDS011;40364;52.270;10.546;2022-10-17T13:58:20;7.07;;;2.08;;
54454;SDS011;40364;52.270;10.546;2022-10-17T14:00:46;4.50;;;1.60;;
54454;SDS011;40364;52.270;10.546;2022-10-17T14:03:16;5.10;;;1.83;;
54454;SDS011;40364;52.270;10.546;2022-10-17T14:06:03;9.77;;;2.08;;
54454;SDS011;40364;52.270;10.546;2022-10-17T14:08:37;5.38;;;2.20;;
54454;SDS011;40364;52.270;10.546;2022-10-17T14:11:15;7.83;;;2.47;;
54454;SDS011;40364;52.270;10.546;2022-10-17T14:13:47;4.97;;;1.67;;
54454;SDS011;40364;52.270;10.546;2022-10-17T14:16:17;4.35;;;1.80;;
54454;SDS011;40364;52.270;10.546;2022-10-17T14:18:46;6.30;;;2.10;;
54454;SDS011;40364;52.270;10.546;2022-10-17T14:21:18;6.40;;;1.73;;
54454;SDS011;40364;52.270;10.546;2022-10-17T14:23:46;2.45;;;1.77;;
54454;SDS011;40364;52.270;10.546;2022-10-17T14:26:14;5.10;;;2.33;;
54454;SDS011;40364;52.270;10.546;2022-10-17T14:28:42;6.00;;;2.05;;
54454;SDS011;40364;52.270;10.546;2022-10-17T14:31:11;12.02;;;1.95;;
54454;SDS011;40364;52.270;10.546;2022-10-17T14:33:58;2.63;;;1.80;;
54454;SDS011;40364;52.270;10.546;2022-10-17T14:36:34;5.60;;;2.10;;
54454;SDS011;40364;52.270;10.546;2022-10-17T14:39:04;4.60;;;2.17;;
54454;SDS011;40364;52.270;10.546;2022-10-17T14:41:33;4.53;;;1.98;;
54454;SDS011;40364;52.270;10.546;2022-10-17T14:44:02;2.50;;;1.80;;
54454;SDS011;40364;52.270;10.546;2022-10-17T14:46:33;8.07;;;2.45;;
54454;SDS011;40364;52.270;10.546;2022-10-17T14:49:04;7.38;;;2.10;;
54454;SDS011;40364;52.270;10.546;2022-10-17T14:51:32;7.10;;;2.00;;
54454;SDS011;40364;52.270;10.546;2022-10-17T14:54:02;3.42;;;1.95;;
54454;SDS011;40364;52.270;10.546;2022-10-17T14:56:36;3.10;;;1.60;;
54454;SDS011;40364;52.270;10.546;2022-10-17T14:59:05;3.22;;;1.80;;
54454;SDS011;40364;52.270;10.546;2022-10-17T15:01:34;4.88;;;2.10;;
54454;SDS011;40364;52.270;10.546;2022-10-17T15:04:02;4.07;;;2.00;;
54454;SDS011;40364;52.270;10.546;2022-10-17T15:06:30;9.65;;;2.58;;
54454;SDS011;40364;52.270;10.546;2022-10-17T15:08:58;4.72;;;2.28;;
54454;SDS011;40364;52.270;10.546;2022-10-17T15:11:25;7.53;;;2.42;;
54454;SDS011;40364;52.270;10.546;2022-10-17T15:13:52;8.73;;;2.67;;
54454;SDS011;40364;52.270;10.546;2022-10-17T15:16:19;4.13;;;2.00;;
54454;SDS011;40364;52.270;10.546;2022-10-17T15:18:47;5.22;;;2.05;;